createdAt,value
2019-05-20T00:05:00.920Z,9.30
2019-05-20T00:10:30.224Z,10.40
2019-05-20T00:15:59.492Z,8.20
2019-05-20T00:21:28.764Z,8.37
2019-05-20T00:26:58.975Z,6.90
2019-05-20T00:32:40.786Z,7.93
2019-05-20T00:37:59.250Z,7.03
2019-05-20T00:43:28.538Z,6.33
2019-05-20T00:48:57.819Z,7.03
2019-05-20T00:54:27.142Z,6.20
2019-05-20T00:59:59.360Z,6.90
2019-05-20T01:05:29.093Z,5.20
2019-05-20T01:10:58.352Z,7.77
2019-05-20T01:16:27.695Z,7.20
2019-05-20T01:21:56.987Z,15.33
2019-05-20T01:27:26.249Z,5.97
2019-05-20T01:32:55.526Z,8.53
2019-05-20T01:38:24.794Z,6.73
2019-05-20T01:43:54.074Z,6.73
2019-05-20T01:49:24.325Z,12.90
2019-05-20T01:54:54.552Z,9.37
2019-05-20T02:00:23.996Z,7.83
2019-05-20T02:05:53.286Z,10.20
2019-05-20T02:11:22.667Z,6.83
2019-05-20T02:16:51.955Z,8.37
2019-05-20T02:22:22.905Z,6.60
2019-05-20T02:27:52.193Z,7.50
2019-05-20T02:33:21.471Z,8.63
2019-05-20T02:38:50.853Z,12.37
2019-05-20T02:44:20.130Z,9.60
2019-05-20T02:49:51.408Z,9.70
2019-05-20T02:55:20.685Z,10.90
2019-05-20T03:00:49.973Z,11.60
2019-05-20T03:06:19.262Z,14.20
2019-05-20T03:11:48.623Z,14.37
2019-05-20T03:17:18.889Z,8.77
2019-05-20T03:22:48.178Z,14.00
2019-05-20T03:28:17.552Z,14.17
2019-05-20T03:33:46.814Z,16.03
2019-05-20T03:39:16.189Z,17.80
2019-05-20T03:44:45.454Z,19.70
2019-05-20T03:50:14.962Z,19.50
2019-05-20T03:55:44.876Z,18.87
2019-05-20T04:01:14.150Z,22.70
2019-05-20T04:06:43.695Z,20.70
2019-05-20T04:12:12.974Z,15.97
2019-05-20T04:17:42.287Z,23.40
2019-05-20T04:23:11.700Z,18.53
2019-05-20T04:28:40.978Z,17.57
2019-05-20T04:34:10.262Z,15.50
2019-05-20T04:39:39.666Z,17.07
2019-05-20T04:45:10.722Z,20.30
2019-05-20T04:50:39.997Z,20.30
2019-05-20T04:56:09.301Z,21.23
2019-05-20T05:01:38.579Z,19.43
2019-05-20T05:07:07.865Z,13.37
2019-05-20T05:12:37.289Z,16.03
2019-05-20T05:18:07.611Z,20.10
2019-05-20T05:23:36.966Z,15.83
2019-05-20T05:29:06.241Z,17.17
2019-05-20T05:34:35.528Z,20.40
2019-05-20T05:40:08.239Z,18.87
2019-05-20T05:45:37.613Z,21.93
2019-05-20T05:51:07.033Z,22.43
2019-05-20T05:56:36.367Z,26.10
2019-05-20T06:02:05.649Z,32.43
2019-05-20T06:07:34.973Z,31.70
2019-05-20T06:13:04.550Z,34.60
2019-05-20T06:18:33.965Z,37.57
2019-05-20T06:24:03.268Z,28.93
2019-05-20T06:29:32.539Z,26.23
2019-05-20T06:35:01.936Z,23.73
2019-05-20T06:40:31.298Z,23.77
2019-05-20T06:46:00.592Z,22.03
2019-05-20T06:51:29.882Z,29.13
2019-05-20T06:56:59.202Z,33.30
2019-05-20T07:02:28.618Z,50.10
2019-05-20T07:08:01.054Z,37.63
2019-05-20T07:13:28.986Z,35.60
2019-05-20T07:18:58.274Z,33.47
2019-05-20T07:24:27.561Z,39.50
2019-05-20T07:29:56.846Z,34.80
2019-05-20T07:35:45.629Z,34.77
2019-05-20T07:41:14.973Z,38.30
2019-05-20T07:46:44.449Z,36.47
2019-05-20T07:52:14.095Z,34.17
2019-05-20T07:57:46.887Z,33.47
2019-05-20T08:03:16.290Z,35.00
2019-05-20T08:08:45.661Z,38.47
2019-05-20T08:14:15.157Z,39.60
2019-05-20T08:19:44.490Z,31.97
2019-05-20T08:25:14.147Z,33.40
2019-05-20T08:30:43.753Z,36.47
2019-05-20T08:36:13.321Z,35.00
2019-05-20T08:41:42.733Z,31.83
2019-05-20T08:47:12.127Z,26.90
2019-05-20T08:52:41.658Z,29.53
2019-05-20T08:58:11.169Z,31.60
2019-05-20T09:03:40.637Z,40.00
2019-05-20T09:09:12.394Z,27.40
2019-05-20T09:14:41.300Z,32.00
2019-05-20T09:20:11.906Z,29.23
2019-05-20T09:25:41.437Z,30.63
2019-05-20T09:31:10.867Z,27.77
2019-05-20T09:36:40.361Z,25.33
2019-05-20T09:42:09.892Z,26.33
2019-05-20T09:47:39.320Z,26.00
2019-05-20T09:53:08.949Z,24.87
2019-05-20T09:58:38.296Z,26.00
2019-05-20T10:04:07.795Z,28.63
2019-05-20T10:09:37.124Z,28.17
2019-05-20T10:15:08.690Z,27.33
2019-05-20T10:20:38.245Z,27.63
2019-05-20T10:26:07.802Z,33.10
2019-05-20T10:31:37.324Z,73.97
2019-05-20T10:37:11.742Z,23.60
2019-05-20T10:42:41.246Z,25.60
2019-05-20T10:48:10.665Z,31.57
2019-05-20T10:53:40.303Z,26.60
2019-05-20T10:59:13.293Z,24.10
2019-05-20T11:04:42.837Z,25.67
2019-05-20T11:10:12.562Z,24.97
2019-05-20T11:15:42.304Z,21.97
2019-05-20T11:21:11.835Z,30.80
2019-05-20T11:26:41.497Z,25.17
2019-05-20T11:32:11.279Z,23.30
2019-05-20T11:37:41.679Z,23.50
2019-05-20T11:43:11.051Z,24.87
2019-05-20T11:48:40.378Z,26.40
2019-05-20T11:54:10.813Z,29.07
2019-05-20T11:59:40.212Z,29.93
2019-05-20T12:05:10.712Z,26.57
2019-05-20T12:10:40.585Z,30.80
2019-05-20T12:16:10.024Z,33.53
2019-05-20T12:21:39.450Z,28.13
2019-05-20T12:27:08.986Z,25.60
2019-05-20T12:32:38.477Z,23.57
2019-05-20T12:38:07.906Z,21.47
2019-05-20T12:43:37.330Z,16.57
2019-05-20T12:49:06.978Z,15.23
2019-05-20T12:54:36.492Z,13.73
2019-05-20T13:00:12.319Z,10.70
2019-05-20T13:05:41.772Z,9.20
2019-05-20T13:11:11.225Z,10.30
2019-05-20T13:16:41.651Z,7.20
2019-05-20T13:22:11.251Z,6.50
2019-05-20T13:27:40.621Z,6.10
2019-05-20T13:33:10.422Z,4.67
2019-05-20T13:38:39.783Z,4.13
2019-05-20T13:44:09.529Z,3.20
2019-05-20T13:49:39.371Z,3.47
2019-05-20T13:55:09.712Z,7.70
2019-05-20T14:00:39.464Z,2.17
2019-05-20T14:06:08.806Z,4.63
2019-05-20T14:11:38.254Z,3.07
2019-05-20T14:17:09.908Z,5.03
2019-05-20T14:22:39.902Z,2.70
2019-05-20T14:28:09.407Z,5.00
2019-05-20T14:33:38.961Z,3.70
2019-05-20T14:39:08.524Z,7.43
2019-05-20T14:44:37.888Z,12.67
2019-05-20T14:50:09.480Z,9.80
2019-05-20T14:55:42.593Z,10.47
2019-05-20T15:01:10.197Z,12.53
2019-05-20T15:06:39.719Z,12.27
2019-05-20T15:12:09.158Z,10.50
2019-05-20T15:17:38.646Z,12.83
2019-05-20T15:23:08.091Z,9.53
2019-05-20T15:28:37.489Z,9.70
2019-05-20T15:34:06.886Z,9.27
2019-05-20T15:39:36.209Z,11.57
2019-05-20T15:45:09.213Z,8.50
2019-05-20T15:50:38.583Z,9.00
2019-05-20T15:56:08.204Z,11.50
2019-05-20T16:01:37.915Z,7.10
2019-05-20T16:07:07.682Z,6.93
2019-05-20T16:12:37.198Z,6.20
2019-05-20T16:18:06.780Z,2.83
2019-05-20T16:23:38.280Z,3.30
2019-05-20T16:29:10.629Z,2.93
2019-05-20T16:34:41.177Z,2.30
2019-05-20T16:40:12.480Z,2.53
2019-05-20T16:45:42.437Z,2.50
2019-05-20T16:51:12.082Z,4.70
2019-05-20T16:56:41.683Z,7.93
2019-05-20T17:02:11.663Z,3.70
2019-05-20T17:07:41.887Z,13.43
2019-05-20T17:13:11.288Z,5.93
2019-05-20T17:18:40.662Z,6.57
2019-05-20T17:24:10.193Z,6.00
2019-05-20T17:29:39.700Z,8.07
2019-05-20T17:35:09.407Z,9.37
2019-05-20T17:40:38.773Z,7.63
2019-05-20T17:46:08.503Z,13.13
2019-05-20T17:51:38.026Z,13.67
2019-05-20T17:57:08.173Z,14.53
2019-05-20T18:02:45.638Z,13.83
2019-05-20T18:08:15.797Z,14.40
2019-05-20T18:13:45.391Z,20.27
2019-05-20T18:19:14.853Z,20.50
2019-05-20T18:24:44.234Z,18.93
2019-05-20T18:30:15.051Z,14.13
2019-05-20T18:35:44.544Z,19.20
2019-05-20T18:41:13.991Z,17.37
2019-05-20T18:46:43.403Z,24.23
2019-05-20T18:52:13.033Z,21.30
2019-05-20T18:57:42.582Z,21.20
2019-05-20T19:03:12.067Z,19.70
2019-05-20T19:08:41.446Z,18.63
2019-05-20T19:14:11.439Z,24.30
2019-05-20T19:19:40.991Z,21.63
2019-05-20T19:25:10.662Z,19.87
2019-05-20T19:30:41.750Z,20.33
2019-05-20T19:36:11.596Z,19.70
2019-05-20T19:41:41.122Z,22.13
2019-05-20T19:47:10.617Z,24.43
2019-05-20T19:52:46.380Z,23.40
2019-05-20T19:58:16.831Z,27.17
2019-05-20T20:03:46.308Z,21.97
2019-05-20T20:09:15.682Z,18.10
2019-05-20T20:14:45.082Z,17.80
2019-05-20T20:20:14.641Z,14.37
2019-05-20T20:25:44.086Z,15.80
2019-05-20T20:31:13.495Z,18.83
2019-05-20T20:36:43.077Z,18.47
2019-05-20T20:42:12.574Z,18.33
2019-05-20T20:47:42.526Z,14.70
2019-05-20T20:53:11.996Z,7.33
2019-05-20T20:58:42.367Z,8.97
2019-05-20T21:04:11.871Z,8.97
2019-05-20T21:09:41.500Z,8.97
2019-05-20T21:15:13.175Z,9.87
2019-05-20T21:20:46.240Z,10.07
2019-05-20T21:26:15.743Z,13.43
2019-05-20T21:31:45.223Z,8.43
2019-05-20T21:37:14.676Z,10.60
2019-05-20T21:42:44.268Z,11.00
2019-05-20T21:48:13.599Z,14.83
2019-05-20T21:53:43.061Z,16.53
2019-05-20T21:59:12.520Z,15.33
2019-05-20T22:04:41.974Z,9.80
2019-05-20T22:10:11.432Z,14.73
2019-05-20T22:15:40.866Z,14.33
2019-05-20T22:21:11.885Z,9.53
2019-05-20T22:26:41.376Z,9.20
2019-05-20T22:32:10.719Z,8.10
2019-05-20T22:37:40.155Z,7.60
2019-05-20T22:43:09.502Z,7.57
2019-05-20T22:48:38.834Z,8.13
2019-05-20T22:54:08.320Z,7.20
2019-05-20T22:59:37.639Z,9.63
2019-05-20T23:05:10.224Z,9.60
2019-05-20T23:10:39.554Z,11.77
2019-05-20T23:16:08.877Z,10.60
2019-05-20T23:21:38.275Z,11.17
2019-05-20T23:27:07.700Z,14.30
2019-05-20T23:32:37.029Z,14.07
2019-05-20T23:38:06.419Z,13.00
2019-05-20T23:43:36.868Z,8.37
2019-05-20T23:49:06.335Z,9.47
2019-05-20T23:54:35.732Z,11.30
